createdAt,value
2023-03-02T00:01:33.623Z,0.92
2023-03-02T00:04:00.256Z,0.90
2023-03-02T00:06:28.353Z,0.88
2023-03-02T00:08:54.886Z,0.87
2023-03-02T00:11:21.626Z,0.86
2023-03-02T00:13:48.106Z,0.82
2023-03-02T00:16:14.670Z,0.87
2023-03-02T00:18:41.151Z,0.94
2023-03-02T00:21:10.449Z,0.86
2023-03-02T00:23:38.197Z,0.89
2023-03-02T00:26:05.850Z,0.84
2023-03-02T00:28:32.944Z,0.77
2023-03-02T00:30:59.571Z,0.89
2023-03-02T00:33:26.072Z,0.89
2023-03-02T00:35:52.582Z,0.88
2023-03-02T00:38:19.111Z,0.90
2023-03-02T00:40:46.435Z,0.90
2023-03-02T00:43:13.304Z,0.89
2023-03-02T00:45:39.873Z,0.90
2023-03-02T00:48:06.591Z,0.90
2023-03-02T00:50:33.074Z,0.94
2023-03-02T00:52:59.591Z,0.90
2023-03-02T00:55:26.066Z,0.90
2023-03-02T00:57:55.346Z,0.89
2023-03-02T01:00:23.034Z,0.85
2023-03-02T01:02:49.974Z,0.79
2023-03-02T01:05:16.657Z,0.80
2023-03-02T01:07:43.195Z,0.84
2023-03-02T01:10:10.352Z,0.83
2023-03-02T01:12:36.813Z,0.77
2023-03-02T01:15:03.635Z,0.74
2023-03-02T01:17:30.123Z,0.67
2023-03-02T01:19:57.084Z,0.61
2023-03-02T01:22:23.604Z,0.55
2023-03-02T01:24:50.249Z,0.61
2023-03-02T01:27:16.785Z,0.57
2023-03-02T01:29:43.384Z,0.58
2023-03-02T01:32:09.998Z,0.58
2023-03-02T01:34:36.585Z,0.49
2023-03-02T01:37:03.105Z,0.51
2023-03-02T01:39:29.614Z,0.56
2023-03-02T01:44:39.579Z,0.47
2023-03-02T01:47:23.283Z,0.37
2023-03-02T01:49:59.727Z,0.40
2023-03-02T01:52:26.733Z,0.40
2023-03-02T01:54:53.750Z,0.29
2023-03-02T01:57:26.963Z,0.32
2023-03-02T01:59:56.144Z,0.32
2023-03-02T02:02:22.566Z,0.20
2023-03-02T02:04:49.064Z,0.20
2023-03-02T02:07:15.601Z,0.21
2023-03-02T02:09:47.052Z,0.18
2023-03-02T02:12:15.275Z,0.25
2023-03-02T02:14:41.889Z,0.23
2023-03-02T02:17:08.322Z,0.26
2023-03-02T02:19:55.460Z,0.27
2023-03-02T02:22:44.653Z,0.30
2023-03-02T02:25:41.429Z,0.27
2023-03-02T02:28:14.474Z,0.27
2023-03-02T02:30:40.894Z,0.30
2023-03-02T02:33:07.394Z,0.18
2023-03-02T02:35:34.758Z,0.15
2023-03-02T02:38:05.755Z,0.23
2023-03-02T02:40:42.272Z,0.22
2023-03-02T02:43:11.857Z,0.19
2023-03-02T02:45:38.343Z,0.20
2023-03-02T02:48:05.053Z,0.22
2023-03-02T02:50:33.435Z,0.21
2023-03-02T02:53:02.958Z,0.10
2023-03-02T02:55:29.725Z,0.12
2023-03-02T02:57:57.610Z,0.21
2023-03-02T03:00:24.248Z,0.04
2023-03-02T03:03:00.149Z,-0.03
2023-03-02T03:05:26.716Z,-0.09
2023-03-02T03:07:53.242Z,-0.30
2023-03-02T03:10:34.987Z,-0.19
2023-03-02T03:13:01.910Z,-0.03
2023-03-02T03:15:28.392Z,-0.07
2023-03-02T03:17:56.236Z,-0.04
2023-03-02T03:20:23.049Z,0.00
2023-03-02T03:22:49.539Z,-0.11
2023-03-02T03:25:16.091Z,-0.12
2023-03-02T03:27:42.999Z,-0.07
2023-03-02T03:30:13.135Z,-0.04
2023-03-02T03:32:39.772Z,-0.05
2023-03-02T03:35:08.785Z,-0.16
2023-03-02T03:37:35.326Z,-0.66
2023-03-02T03:40:01.838Z,-1.28
2023-03-02T03:42:28.360Z,-1.29
2023-03-02T03:44:54.857Z,-1.19
2023-03-02T03:47:21.351Z,-0.97
2023-03-02T03:49:47.820Z,-0.84
2023-03-02T03:52:14.343Z,-0.88
2023-03-02T03:54:40.875Z,-1.25
2023-03-02T03:57:07.383Z,-0.73
2023-03-02T03:59:34.063Z,-0.59
2023-03-02T04:02:01.352Z,-0.53
2023-03-02T04:04:29.897Z,-0.46
2023-03-02T04:06:56.361Z,-0.61
2023-03-02T04:09:23.159Z,-0.85
2023-03-02T04:11:51.332Z,-0.64
2023-03-02T04:14:18.023Z,-0.61
2023-03-02T04:16:44.645Z,-1.06
2023-03-02T04:19:11.448Z,-0.83
2023-03-02T04:21:39.159Z,-0.89
2023-03-02T04:24:06.077Z,-0.64
2023-03-02T04:26:33.164Z,-0.57
2023-03-02T04:28:59.776Z,-0.45
2023-03-02T04:31:26.387Z,-0.48
2023-03-02T04:33:52.918Z,-0.48
2023-03-02T04:36:19.644Z,-0.57
2023-03-02T04:38:46.827Z,-0.59
2023-03-02T04:41:13.312Z,-0.68
2023-03-02T04:43:39.813Z,-0.70
2023-03-02T04:46:06.373Z,-0.61
2023-03-02T04:48:32.866Z,-0.61
2023-03-02T04:50:59.346Z,-0.63
2023-03-02T04:53:25.889Z,-0.68
2023-03-02T04:55:52.346Z,-0.57
2023-03-02T04:58:18.863Z,-0.55
2023-03-02T05:00:45.392Z,-0.48
2023-03-02T05:03:11.891Z,-0.45
2023-03-02T05:05:38.474Z,-0.40
2023-03-02T05:08:05.081Z,-0.50
2023-03-02T05:10:31.556Z,-0.51
2023-03-02T05:12:58.258Z,-0.63
2023-03-02T05:15:26.592Z,-0.71
2023-03-02T05:17:53.063Z,-0.69
2023-03-02T05:20:19.779Z,-0.75
2023-03-02T05:22:46.537Z,-0.73
2023-03-02T05:25:13.059Z,-0.83
2023-03-02T05:27:39.599Z,-0.80
2023-03-02T05:30:06.872Z,-0.82
2023-03-02T05:32:33.378Z,-0.77
2023-03-02T05:35:00.444Z,-0.71
2023-03-02T05:37:26.937Z,-0.65
2023-03-02T05:39:53.418Z,-0.63
2023-03-02T05:42:19.882Z,-0.73
2023-03-02T05:44:46.442Z,-0.66
2023-03-02T05:47:13.010Z,-0.56
2023-03-02T05:49:39.532Z,-0.59
2023-03-02T05:52:06.054Z,-0.61
2023-03-02T05:54:32.608Z,-0.52
2023-03-02T05:56:59.124Z,-0.55
2023-03-02T05:59:25.702Z,-0.66
2023-03-02T06:01:58.590Z,-0.68
2023-03-02T06:04:25.646Z,-0.66
2023-03-02T06:06:52.700Z,-0.65
2023-03-02T06:09:19.172Z,-0.65
2023-03-02T06:11:45.918Z,-0.66
2023-03-02T06:14:12.444Z,-0.69
2023-03-02T06:16:38.927Z,-0.72
2023-03-02T06:19:06.165Z,-0.68
2023-03-02T06:21:32.834Z,-0.65
2023-03-02T06:23:59.346Z,-0.64
2023-03-02T06:26:25.914Z,-0.64
2023-03-02T06:28:53.881Z,-0.60
2023-03-02T06:31:21.176Z,-0.52
2023-03-02T06:33:47.878Z,-0.47
2023-03-02T06:36:15.062Z,-0.41
2023-03-02T06:38:41.588Z,-0.33
2023-03-02T06:41:08.079Z,-0.21
2023-03-02T06:43:34.574Z,-0.18
2023-03-02T06:46:01.834Z,-0.12
2023-03-02T06:48:28.390Z,-0.06
2023-03-02T06:50:54.846Z,0.05
2023-03-02T06:53:23.293Z,0.10
2023-03-02T06:55:50.539Z,0.15
2023-03-02T06:58:17.232Z,0.17
2023-03-02T07:00:43.733Z,0.33
2023-03-02T07:03:10.226Z,0.36
2023-03-02T07:05:36.855Z,0.40
2023-03-02T07:08:03.510Z,0.44
2023-03-02T07:10:30.135Z,0.51
2023-03-02T07:12:56.735Z,0.55
2023-03-02T07:15:23.260Z,0.62
2023-03-02T07:17:50.012Z,0.65
2023-03-02T07:20:17.569Z,0.71
2023-03-02T07:22:44.273Z,0.76
2023-03-02T07:25:11.029Z,0.84
2023-03-02T07:27:37.796Z,0.94
2023-03-02T07:30:05.586Z,1.03
2023-03-02T07:32:32.277Z,1.07
2023-03-02T07:34:58.828Z,1.13
2023-03-02T07:37:25.379Z,1.22
2023-03-02T07:39:52.074Z,1.24
2023-03-02T07:42:18.659Z,1.31
2023-03-02T07:44:45.184Z,1.37
2023-03-02T07:47:12.023Z,1.50
2023-03-02T07:49:38.677Z,1.53
2023-03-02T07:52:06.683Z,1.64
2023-03-02T07:54:33.221Z,1.70
2023-03-02T07:56:59.758Z,1.80
2023-03-02T07:59:26.395Z,1.92
2023-03-02T08:01:53.059Z,2.08
2023-03-02T08:04:19.608Z,2.16
2023-03-02T08:06:46.141Z,2.20
2023-03-02T08:09:15.139Z,2.31
2023-03-02T08:11:43.003Z,2.26
2023-03-02T08:14:09.438Z,2.45
2023-03-02T08:16:36.027Z,2.46
2023-03-02T08:19:02.536Z,2.49
2023-03-02T08:21:29.161Z,2.64
2023-03-02T08:23:56.050Z,2.75
2023-03-02T08:26:22.624Z,2.87
2023-03-02T08:28:49.153Z,2.93
2023-03-02T08:31:15.933Z,2.82
2023-03-02T08:33:42.507Z,3.13
2023-03-02T08:36:12.475Z,3.07
2023-03-02T08:38:39.038Z,3.16
2023-03-02T08:41:07.188Z,3.25
2023-03-02T08:43:33.727Z,3.21
2023-03-02T08:46:00.403Z,3.39
2023-03-02T08:48:27.071Z,3.41
2023-03-02T08:51:01.388Z,3.50
2023-03-02T08:53:28.474Z,3.58
2023-03-02T08:55:54.979Z,3.59
2023-03-02T08:58:21.583Z,3.94
2023-03-02T09:00:48.214Z,3.93
2023-03-02T09:03:14.954Z,3.91
2023-03-02T09:05:41.458Z,4.08
2023-03-02T09:08:07.942Z,4.00
2023-03-02T09:10:34.441Z,4.10
2023-03-02T09:13:00.959Z,4.37
2023-03-02T09:15:27.537Z,4.44
2023-03-02T09:17:54.102Z,4.41
2023-03-02T09:20:20.778Z,4.48
2023-03-02T09:22:50.696Z,4.62
2023-03-02T09:25:18.520Z,5.02
2023-03-02T09:27:46.290Z,4.97
2023-03-02T09:30:13.801Z,4.94
2023-03-02T09:32:40.829Z,5.04
2023-03-02T09:35:08.090Z,5.04
2023-03-02T09:37:37.290Z,5.26
2023-03-02T09:40:04.371Z,5.34
2023-03-02T09:42:54.520Z,5.28
2023-03-02T09:45:39.412Z,5.47
2023-03-02T09:48:11.255Z,5.58
2023-03-02T09:50:41.021Z,5.81
2023-03-02T09:53:16.568Z,5.69
2023-03-02T09:55:43.876Z,5.64
2023-03-02T09:58:16.092Z,5.58
2023-03-02T10:00:43.978Z,5.77
2023-03-02T10:03:23.469Z,5.80
2023-03-02T10:05:54.190Z,6.14
2023-03-02T10:08:24.873Z,6.20
2023-03-02T10:11:04.657Z,6.16
2023-03-02T10:13:47.571Z,6.40
2023-03-02T10:16:35.502Z,6.30
2023-03-02T10:19:17.325Z,6.30
2023-03-02T10:21:47.897Z,6.47
2023-03-02T10:24:31.768Z,6.57
2023-03-02T10:27:00.452Z,6.68
2023-03-02T10:29:29.885Z,6.48
2023-03-02T10:32:13.120Z,6.73
2023-03-02T10:34:39.649Z,6.64
2023-03-02T10:37:14.787Z,6.73
2023-03-02T10:39:41.637Z,6.96
2023-03-02T10:42:13.377Z,6.96
2023-03-02T10:44:40.840Z,7.10
2023-03-02T10:47:10.904Z,7.32
2023-03-02T10:49:41.678Z,7.14
2023-03-02T10:52:21.927Z,7.18
2023-03-02T10:54:48.566Z,7.35
2023-03-02T10:57:28.501Z,7.34
2023-03-02T10:59:59.089Z,7.40
2023-03-02T11:02:27.477Z,7.42
2023-03-02T11:04:58.861Z,7.48
2023-03-02T11:07:27.837Z,7.50
2023-03-02T11:10:00.410Z,7.62
2023-03-02T11:12:27.252Z,7.69
2023-03-02T11:15:12.021Z,7.58
2023-03-02T11:17:38.584Z,7.80
2023-03-02T11:20:05.555Z,7.82
2023-03-02T11:23:15.172Z,7.95
2023-03-02T11:25:46.291Z,8.15
2023-03-02T11:28:19.635Z,8.27
2023-03-02T11:30:47.511Z,8.21
2023-03-02T11:33:24.359Z,8.23
2023-03-02T11:36:15.448Z,8.54
2023-03-02T11:38:50.085Z,8.39
2023-03-02T11:41:31.263Z,8.57
2023-03-02T11:43:59.958Z,8.52
2023-03-02T11:46:30.550Z,8.56
2023-03-02T11:48:59.845Z,8.69
2023-03-02T11:51:29.537Z,8.94
2023-03-02T11:53:59.392Z,8.90
2023-03-02T11:56:26.645Z,9.04
2023-03-02T11:58:56.267Z,9.03
2023-03-02T12:01:24.719Z,9.76
2023-03-02T12:03:51.291Z,9.08
2023-03-02T12:06:20.402Z,10.48
2023-03-02T12:08:47.645Z,11.55
2023-03-02T12:11:16.859Z,11.63
2023-03-02T12:13:44.493Z,11.34
2023-03-02T12:16:37.762Z,11.48
2023-03-02T12:19:16.196Z,10.37
2023-03-02T12:22:06.893Z,9.87
2023-03-02T12:24:34.476Z,10.10
2023-03-02T12:27:27.393Z,10.03
2023-03-02T12:30:09.860Z,10.12
2023-03-02T12:32:36.803Z,10.21
2023-03-02T12:35:14.454Z,10.32
2023-03-02T12:37:48.077Z,10.28
2023-03-02T12:40:25.443Z,10.19
2023-03-02T12:42:57.965Z,10.29
2023-03-02T12:46:01.742Z,10.15
2023-03-02T12:48:32.283Z,10.37
2023-03-02T12:51:03.226Z,10.33
2023-03-02T12:53:29.782Z,10.49
2023-03-02T12:55:56.389Z,10.34
2023-03-02T12:58:25.514Z,10.32
2023-03-02T13:00:53.879Z,10.50
2023-03-02T13:03:20.595Z,10.61
2023-03-02T13:05:50.203Z,10.68
2023-03-02T13:08:28.630Z,10.54
2023-03-02T13:10:56.700Z,10.50
2023-03-02T13:13:28.672Z,10.31
2023-03-02T13:15:56.119Z,10.40
2023-03-02T13:18:23.339Z,10.45
2023-03-02T13:20:50.209Z,10.53
2023-03-02T13:23:16.968Z,10.46
2023-03-02T13:25:54.708Z,10.54
2023-03-02T13:28:37.946Z,10.44
2023-03-02T13:31:23.810Z,10.51
2023-03-02T13:33:50.879Z,10.52
2023-03-02T13:36:22.487Z,10.40
2023-03-02T13:38:51.492Z,10.42
2023-03-02T13:41:28.209Z,10.47
2023-03-02T13:43:55.217Z,10.42
2023-03-02T13:46:22.161Z,10.53
2023-03-02T13:49:10.647Z,10.53
2023-03-02T13:51:45.643Z,10.54
2023-03-02T13:54:17.178Z,10.43
2023-03-02T13:56:43.931Z,10.42
2023-03-02T13:59:14.376Z,10.51
2023-03-02T14:01:44.248Z,10.42
2023-03-02T14:04:14.726Z,10.53
2023-03-02T14:06:41.267Z,10.45
2023-03-02T14:09:07.808Z,10.47
2023-03-02T14:11:36.142Z,10.53
2023-03-02T14:14:03.170Z,10.41
2023-03-02T14:16:29.932Z,10.48
2023-03-02T14:18:56.656Z,10.33
2023-03-02T14:21:24.219Z,10.32
2023-03-02T14:23:52.097Z,10.19
2023-03-02T14:26:38.539Z,10.23
2023-03-02T14:29:15.779Z,10.31
2023-03-02T14:31:42.309Z,10.33
2023-03-02T14:34:14.391Z,10.27
2023-03-02T14:36:41.098Z,10.20
2023-03-02T14:39:17.557Z,10.18
2023-03-02T14:41:53.458Z,10.26
2023-03-02T14:44:20.925Z,10.16
2023-03-02T14:46:47.549Z,10.09
2023-03-02T14:49:14.137Z,10.11
2023-03-02T14:51:40.926Z,10.07
2023-03-02T14:54:09.673Z,10.13
2023-03-02T14:56:36.205Z,10.11
2023-03-02T14:59:02.693Z,10.05
2023-03-02T15:01:29.304Z,10.12
2023-03-02T15:03:55.785Z,10.05
2023-03-02T15:06:24.847Z,9.82
2023-03-02T15:08:51.834Z,9.90
2023-03-02T15:11:18.321Z,9.82
2023-03-02T15:13:45.811Z,9.76
2023-03-02T15:16:12.688Z,9.92
2023-03-02T15:18:39.352Z,9.86
2023-03-02T15:21:06.094Z,9.94
2023-03-02T15:23:32.984Z,9.91
2023-03-02T15:26:00.421Z,9.86
2023-03-02T15:28:26.989Z,9.86
2023-03-02T15:30:53.517Z,9.78
2023-03-02T15:33:19.988Z,9.75
2023-03-02T15:35:46.549Z,9.63
2023-03-02T15:38:13.079Z,9.66
2023-03-02T15:40:39.599Z,9.65
2023-03-02T15:43:06.149Z,9.72
2023-03-02T15:45:32.657Z,9.58
2023-03-02T15:47:59.123Z,9.64
2023-03-02T15:50:25.659Z,9.63
2023-03-02T15:52:52.206Z,9.47
2023-03-02T15:55:18.814Z,9.47
2023-03-02T15:57:45.296Z,9.43
2023-03-02T16:00:13.497Z,9.31
2023-03-02T16:02:40.585Z,9.29
2023-03-02T16:05:07.640Z,9.32
2023-03-02T16:07:34.485Z,9.27
2023-03-02T16:10:00.995Z,9.19
2023-03-02T16:12:27.511Z,9.18
2023-03-02T16:14:54.122Z,9.06
2023-03-02T16:17:21.362Z,8.96
2023-03-02T16:19:47.832Z,8.93
2023-03-02T16:22:14.584Z,8.92
2023-03-02T16:24:41.994Z,8.89
2023-03-02T16:27:08.571Z,8.86
2023-03-02T16:29:35.096Z,8.73
2023-03-02T16:32:01.793Z,8.60
2023-03-02T16:34:28.386Z,8.51
2023-03-02T16:36:54.914Z,8.51
2023-03-02T16:39:21.414Z,8.47
2023-03-02T16:41:47.912Z,8.40
2023-03-02T16:44:14.670Z,8.33
2023-03-02T16:46:43.278Z,8.36
2023-03-02T16:49:10.979Z,8.23
2023-03-02T16:51:37.886Z,8.11
2023-03-02T16:54:04.362Z,8.14
2023-03-02T16:56:30.873Z,8.04
2023-03-02T16:58:59.979Z,8.00
2023-03-02T17:01:26.872Z,7.97
2023-03-02T17:03:53.431Z,7.99
2023-03-02T17:06:21.445Z,7.76
2023-03-02T17:08:48.029Z,7.71
2023-03-02T17:11:14.507Z,7.72
2023-03-02T17:13:41.217Z,7.61
2023-03-02T17:16:07.928Z,7.30
2023-03-02T17:18:34.657Z,7.19
2023-03-02T17:21:01.399Z,7.03
2023-03-02T17:23:28.097Z,6.90
2023-03-02T17:25:54.850Z,6.79
2023-03-02T17:28:21.363Z,6.71
2023-03-02T17:30:47.901Z,6.55
2023-03-02T17:33:14.427Z,6.34
2023-03-02T17:35:41.042Z,6.30
2023-03-02T17:38:07.550Z,6.33
2023-03-02T17:40:34.092Z,6.35
2023-03-02T17:43:00.618Z,6.36
2023-03-02T17:45:27.922Z,6.40
2023-03-02T17:47:54.702Z,6.24
2023-03-02T17:50:21.647Z,6.21
2023-03-02T17:52:48.414Z,6.22
2023-03-02T17:55:15.072Z,6.18
2023-03-02T17:57:41.727Z,6.12
2023-03-02T18:00:10.955Z,5.89
2023-03-02T18:02:37.452Z,5.69
2023-03-02T18:05:04.322Z,5.57
2023-03-02T18:07:30.821Z,5.27
2023-03-02T18:09:57.292Z,5.26
2023-03-02T18:12:23.872Z,4.90
2023-03-02T18:14:50.457Z,4.70
2023-03-02T18:17:19.914Z,4.46
2023-03-02T18:19:47.348Z,4.10
2023-03-02T18:22:13.885Z,3.76
2023-03-02T18:24:40.408Z,3.55
2023-03-02T18:27:07.013Z,3.43
2023-03-02T18:29:33.623Z,3.10
2023-03-02T18:32:00.232Z,3.22
2023-03-02T18:34:26.945Z,3.09
2023-03-02T18:36:53.470Z,2.97
2023-03-02T18:39:20.135Z,2.76
2023-03-02T18:41:46.746Z,2.70
2023-03-02T18:44:13.285Z,2.51
2023-03-02T18:46:39.910Z,2.70
2023-03-02T18:49:06.542Z,2.51
2023-03-02T18:51:33.074Z,2.40
2023-03-02T18:53:59.659Z,3.11
2023-03-02T18:56:26.210Z,3.45
2023-03-02T18:58:52.729Z,3.44
2023-03-02T19:01:19.634Z,3.15
2023-03-02T19:03:46.350Z,2.78
2023-03-02T19:06:13.135Z,2.73
2023-03-02T19:08:39.781Z,2.90
2023-03-02T19:11:06.477Z,2.52
2023-03-02T19:13:33.113Z,2.43
2023-03-02T19:16:01.824Z,2.36
2023-03-02T19:18:28.844Z,2.21
2023-03-02T19:20:55.648Z,2.08
2023-03-02T19:23:22.138Z,1.74
2023-03-02T19:25:48.789Z,1.62
2023-03-02T19:28:15.817Z,1.75
2023-03-02T19:30:42.271Z,1.64
2023-03-02T19:33:10.038Z,1.44
2023-03-02T19:35:37.584Z,1.57
2023-03-02T19:38:04.884Z,1.75
2023-03-02T19:40:32.092Z,1.71
2023-03-02T19:42:58.601Z,1.35
2023-03-02T19:45:28.602Z,1.30
2023-03-02T19:47:58.400Z,1.51
2023-03-02T19:50:25.306Z,1.63
2023-03-02T19:52:52.437Z,1.49
2023-03-02T19:55:19.631Z,1.65
2023-03-02T19:57:51.084Z,1.59
2023-03-02T20:00:19.198Z,1.59
2023-03-02T20:02:47.182Z,1.88
2023-03-02T20:05:13.725Z,1.65
2023-03-02T20:07:41.855Z,1.73
2023-03-02T20:10:09.513Z,1.77
2023-03-02T20:12:36.822Z,2.39
2023-03-02T20:15:04.711Z,2.40
2023-03-02T20:17:31.200Z,2.66
2023-03-02T20:19:58.507Z,2.62
2023-03-02T20:22:25.851Z,2.58
2023-03-02T20:24:52.373Z,2.09
2023-03-02T20:27:18.898Z,1.93
2023-03-02T20:29:45.598Z,1.68
2023-03-02T20:32:12.338Z,1.62
2023-03-02T20:34:39.310Z,1.67
2023-03-02T20:37:06.103Z,2.20
2023-03-02T20:39:34.893Z,2.01
2023-03-02T20:42:01.462Z,1.66
2023-03-02T20:44:30.929Z,1.54
2023-03-02T20:46:58.913Z,1.25
2023-03-02T20:49:26.751Z,1.25
2023-03-02T20:51:54.817Z,1.33
2023-03-02T20:54:22.486Z,1.01
2023-03-02T20:56:49.048Z,0.90
2023-03-02T20:59:15.553Z,1.07
2023-03-02T21:01:42.060Z,0.97
2023-03-02T21:04:08.583Z,1.25
2023-03-02T21:06:35.186Z,0.79
2023-03-02T21:09:02.602Z,0.75
2023-03-02T21:11:29.828Z,1.10
2023-03-02T21:13:56.847Z,1.40
2023-03-02T21:16:27.999Z,1.52
2023-03-02T21:18:57.279Z,1.57
2023-03-02T21:21:32.638Z,1.05
2023-03-02T21:24:07.599Z,1.11
2023-03-02T21:26:34.908Z,1.43
2023-03-02T21:29:01.481Z,1.18
2023-03-02T21:31:28.075Z,1.23
2023-03-02T21:33:54.746Z,0.99
2023-03-02T21:36:22.382Z,0.72
2023-03-02T21:38:49.941Z,0.84
2023-03-02T21:41:16.422Z,0.74
2023-03-02T21:43:42.892Z,1.03
2023-03-02T21:46:12.494Z,1.26
2023-03-02T21:48:39.014Z,1.30
2023-03-02T21:51:06.570Z,1.08
2023-03-02T21:53:33.251Z,0.64
2023-03-02T21:56:01.765Z,0.73
2023-03-02T21:58:28.552Z,0.91
2023-03-02T22:00:55.430Z,0.92
2023-03-02T22:03:21.923Z,0.70
2023-03-02T22:05:48.644Z,0.22
2023-03-02T22:08:17.570Z,0.50
2023-03-02T22:10:45.566Z,0.50
2023-03-02T22:13:17.849Z,0.05
2023-03-02T22:15:47.387Z,-0.37
2023-03-02T22:18:21.626Z,0.04
2023-03-02T22:20:49.786Z,0.04
2023-03-02T22:23:19.149Z,0.10
2023-03-02T22:25:45.686Z,-0.18
2023-03-02T22:28:22.818Z,-0.41
2023-03-02T22:30:50.883Z,-0.24
2023-03-02T22:33:21.108Z,-0.27
2023-03-02T22:35:48.457Z,-0.40
2023-03-02T22:38:25.748Z,0.04
2023-03-02T22:40:52.642Z,0.39
2023-03-02T22:43:26.075Z,0.60
2023-03-02T22:45:53.502Z,0.69
2023-03-02T22:48:21.507Z,0.65
2023-03-02T22:50:48.979Z,0.61
2023-03-02T22:53:31.800Z,0.63
2023-03-02T22:56:02.229Z,0.60
2023-03-02T22:58:29.328Z,0.58
2023-03-02T23:00:56.996Z,0.60
2023-03-02T23:03:26.302Z,0.36
2023-03-02T23:05:53.054Z,-0.16
2023-03-02T23:08:23.483Z,0.04
2023-03-02T23:10:51.305Z,-0.52
2023-03-02T23:13:19.227Z,-0.69
2023-03-02T23:15:46.152Z,-0.76
2023-03-02T23:18:25.477Z,-0.88
2023-03-02T23:20:52.048Z,-1.14
2023-03-02T23:23:18.780Z,-0.76
2023-03-02T23:25:45.887Z,-0.25
2023-03-02T23:28:12.552Z,0.00
2023-03-02T23:30:39.044Z,0.09
2023-03-02T23:33:05.626Z,-0.14
2023-03-02T23:35:32.113Z,-0.29
2023-03-02T23:37:58.632Z,-0.46
2023-03-02T23:40:25.409Z,-0.35
2023-03-02T23:42:51.901Z,-0.39
2023-03-02T23:45:18.504Z,-0.77
2023-03-02T23:47:45.169Z,-0.71
2023-03-02T23:50:12.099Z,-0.67
2023-03-02T23:52:39.227Z,-0.32
2023-03-02T23:55:07.024Z,-0.27
2023-03-02T23:57:33.511Z,-0.24
